If you wish to contribute or participate in the discussions about articles you are invited to join SKYbrary as a registered user

 Actions

Xi'an Xianyang International

From SKYbrary Wiki

ZLXY
Airport
ICAO: ZLXY
Summary
Name Xi'an Xianyang International
Region Asia and Pacific
Territory China CN.gif
Location Xi'an, Shaanxi
Serving
Coordinates 34° 26' 49.00" N, 108° 45' 5.00" E
Runways
Designator Length Width Surface ROPS
5/23 3000 m9,842.52 ft <br /> 45 m147.638 ft <br /> CON no/no


METAR
Observation ZLXY 052300Z VRB01MPS CAVOK 22/19 Q1006 NOSIG
Station Xian/Xianyang
Date/Time 05 August 2021 23:00:00
Wind direction °
Wind speed kts
Lowest cloud amount clouds and visibility OK
Temperature 22°C
Dew point 19°C
Humidity 83%
QNH 1006 hPa
Weather condition n/a

Xi'an Xianyang International Airport (IATA: XIY) serves Xi'an, Shaanxi, People's Republic of China.